| time (UTC) | temp C | wind direction | speed KPH | gust KPH | rain 1hr cm | rain 24hr cm | rain mn cm | humidity % | barometer mb |
| 20260508043020 | 7 | 39 | 3.2 | 11.3 | 0.00 | 2.51 | 0.00 | 99 | 1001.5 |
| 20260508041519 | 6 | 67 | 4.8 | 11.3 | 0.00 | 2.51 | 0.00 | 99 | 1001.4 |
| 20260508040019 | 6 | 81 | 8.0 | 16.1 | 0.00 | 2.51 | 0.00 | 99 | 1001.4 |
| 20260508034518 | 7 | 53 | 0.0 | 11.3 | 0.00 | 2.51 | 0.00 | 99 | 1001.6 |
| 20260508033018 | 7 | 45 | 4.8 | 9.7 | 0.00 | 2.51 | 0.00 | 99 | 1001.5 |
| 20260508031508 | 8 | 79 | 11.3 | 14.5 | 0.00 | 2.51 | 0.00 | 99 | 1001.6 |
| 20260508030006 | 8 | 34 | 4.8 | 16.1 | 0.00 | 2.51 | 2.51 | 99 | 1001.5 |
| 20260508024505 | 9 | 5 | 3.2 | 8.0 | 0.00 | 2.51 | 2.51 | 100 | 1001.7 |
| 20260508023008 | 9 | 51 | 4.8 | 12.9 | 0.00 | 2.51 | 2.51 | 100 | 1001.3 |
| 20260508021503 | 8 | 49 | 0.0 | 11.3 | 0.00 | 2.51 | 2.51 | 100 | 1001.4 |
| 20260508020103 | 9 | 24 | 1.6 | 9.7 | 0.00 | 2.51 | 2.51 | 100 | 1001.3 |
| 20260508014505 | 9 | 152 | 4.8 | 11.3 | 0.00 | 2.51 | 2.51 | 100 | 1001.3 |
| 20260508013001 | 9 | 359 | 6.4 | 14.5 | 0.00 | 2.51 | 2.51 | 100 | 1001.0 |
| 20260508011502 | 10 | 129 | 8.0 | 17.7 | 0.00 | 2.51 | 2.51 | 100 | 1000.6 |
| 20260508010059 | 9 | 301 | 4.8 | 14.5 | 0.00 | 2.51 | 2.51 | 100 | 1000.7 |
| 20260508004600 | 8 | 250 | 1.6 | 4.8 | 0.00 | 2.51 | 2.51 | 100 | 1001.1 |
| 20260508003105 | 8 | 249 | 0.0 | 3.2 | 0.00 | 2.51 | 2.51 | 100 | 1001.3 |
| 20260508001556 | 7 | 249 | 0.0 | 3.2 | 0.00 | 2.51 | 2.51 | 100 | 1001.5 |
| 20260508000054 | 7 | 208 | 3.2 | 9.7 | 0.00 | 2.51 | 2.51 | 99 | 1001.5 |
| 20260507234554 | 8 | 212 | 3.2 | 8.0 | 0.00 | 2.51 | 2.51 | 99 | 1001.4 |
| 20260507233054 | 9 | 192 | 3.2 | 16.1 | 0.00 | 2.51 | 2.51 | 100 | 1001.5 |
| 20260507231558 | 9 | 189 | 1.6 | 6.4 | 0.00 | 2.51 | 2.51 | 99 | 1001.5 |
| 20260507230053 | 9 | 191 | 6.4 | 14.5 | 0.00 | 2.51 | 2.51 | 100 | 1001.4 |
| 20260507224600 | 8 | 175 | 8.0 | 14.5 | 0.00 | 2.51 | 2.51 | 99 | 1001.7 |
| 20260507223051 | 8 | 185 | 9.7 | 19.3 | 0.00 | 2.51 | 2.51 | 99 | 1001.5 |
| 20260507221550 | 9 | 200 | 6.4 | 16.1 | 0.00 | 2.51 | 2.51 | 99 | 1001.7 |
| 20260507220049 | 10 | 208 | 9.7 | 17.7 | 0.00 | 2.51 | 2.51 | 99 | 1002.0 |
| 20260507214549 | 10 | 210 | 6.4 | 16.1 | 0.05 | 2.51 | 2.51 | 99 | 1002.0 |
| 20260507213051 | 10 | 231 | 3.2 | 12.9 | 0.20 | 2.51 | 2.51 | 100 | 1001.7 |
| 20260507211551 | 7 | 228 | 1.6 | 6.4 | 0.38 | 2.51 | 2.51 | 99 | 1002.0 |
| 20260507210111 | 7 | 226 | 0.0 | 12.9 | 0.58 | 2.51 | 2.51 | 98 | 1001.7 |
| 20260507204550 | 7 | 175 | 3.2 | 9.7 | 0.76 | 2.49 | 2.49 | 98 | 1002.2 |
| 20260507203044 | 10 | 202 | 3.2 | 12.9 | 0.84 | 2.31 | 2.31 | 99 | 1002.2 |
| 20260507201542 | 8 | 198 | 6.4 | 12.9 | 0.89 | 2.13 | 2.13 | 98 | 1002.9 |
| 20260507200052 | 8 | 222 | 9.7 | 20.9 | 0.94 | 1.93 | 1.93 | 97 | 1003.4 |
| 20260507194538 | 10 | 233 | 8.0 | 17.7 | 0.91 | 1.70 | 1.70 | 97 | 1003.7 |
| 20260507193102 | 11 | 175 | 8.0 | 19.3 | 0.89 | 1.45 | 1.45 | 97 | 1004.1 |
| 20260507191536 | 12 | 207 | 14.5 | 22.5 | 0.79 | 1.24 | 1.24 | 97 | 1004.1 |
| 20260507190038 | 12 | 214 | 11.3 | 20.9 | 0.61 | 0.99 | 0.99 | 97 | 1004.0 |
| 20260507184533 | 12 | 170 | 12.9 | 24.1 | 0.36 | 0.76 | 0.76 | 97 | 1004.1 |
| 20260507183038 | 12 | 175 | 8.0 | 17.7 | 0.18 | 0.58 | 0.58 | 96 | 1004.4 |
| 20260507181531 | 12 | 233 | 6.4 | 17.7 | 0.05 | 0.43 | 0.43 | 96 | 1004.3 |
| 20260507180031 | 12 | 226 | 8.0 | 27.4 | 0.00 | 0.41 | 0.41 | 96 | 1004.2 |
| 20260507174529 | 13 | 238 | 11.3 | 22.5 | 0.00 | 0.41 | 0.41 | 96 | 1004.1 |
| 20260507173028 | 12 | 254 | 12.9 | 30.6 | 0.00 | 0.41 | 0.41 | 96 | 1004.2 |
| 20260507171526 | 12 | 212 | 16.1 | 32.2 | 0.00 | 0.41 | 0.41 | 96 | 1004.6 |
| 20260507170025 | 11 | 201 | 14.5 | 24.1 | 0.00 | 0.41 | 0.41 | 94 | 1004.8 |
| 20260507164522 | 12 | 216 | 17.7 | 29.0 | 0.00 | 0.41 | 0.41 | 95 | 1005.1 |
| 20260507163019 | 11 | 204 | 16.1 | 33.8 | 0.00 | 0.41 | 0.41 | 94 | 1005.5 |
| 20260507161520 | 12 | 185 | 12.9 | 32.2 | 0.00 | 0.41 | 0.41 | 94 | 1006.2 |
| 20260507160027 | 13 | 212 | 20.9 | 35.4 | 0.00 | 0.41 | 0.41 | 94 | 1006.6 |
| 20260507154515 | 12 | 208 | 20.9 | 33.8 | 0.00 | 0.41 | 0.41 | 95 | 1007.0 |
| 20260507153018 | 13 | 193 | 16.1 | 33.8 | 0.00 | 0.41 | 0.41 | 96 | 1007.3 |
| 20260507151611 | 12 | 223 | 20.9 | 32.2 | 0.00 | 0.41 | 0.41 | 98 | 1007.3 |
| 20260507150010 | 10 | 194 | 12.9 | 29.0 | 0.00 | 0.41 | 0.41 | 97 | 1007.6 |
| 20260507144513 | 11 | 233 | 14.5 | 30.6 | 0.00 | 0.41 | 0.41 | 97 | 1007.9 |
| 20260507143006 | 11 | 251 | 19.3 | 30.6 | 0.00 | 0.41 | 0.41 | 96 | 1008.5 |
| 20260507141504 | 11 | 204 | 17.7 | 30.6 | 0.00 | 0.41 | 0.41 | 98 | 1008.6 |
| 20260507140001 | 10 | 218 | 12.9 | 25.7 | 0.00 | 0.41 | 0.41 | 98 | 1008.8 |
| 20260507134609 | 10 | 206 | 11.3 | 27.4 | 0.03 | 0.41 | 0.41 | 96 | 1008.7 |
| 20260507133108 | 12 | 239 | 17.7 | 40.2 | 0.03 | 0.41 | 0.41 | 98 | 1009.0 |
| 20260507131557 | 12 | 264 | 17.7 | 32.2 | 0.03 | 0.41 | 0.41 | 99 | 1009.1 |
| 20260507130054 | 12 | 196 | 11.3 | 24.1 | 0.05 | 0.41 | 0.41 | 100 | 1009.0 |
| 20260507124553 | 11 | 226 | 9.7 | 22.5 | 0.15 | 0.38 | 0.38 | 100 | 1009.1 |
| 20260507123052 | 10 | 189 | 11.3 | 22.5 | 0.23 | 0.38 | 0.38 | 99 | 1009.5 |
| 20260507121546 | 10 | 229 | 9.7 | 20.9 | 0.33 | 0.38 | 0.38 | 100 | 1009.9 |
| 20260507120044 | 10 | 170 | 11.3 | 22.5 | 0.33 | 0.33 | 0.33 | 100 | 1010.4 |
| 20260507114548 | 10 | 214 | 9.7 | 20.9 | 0.23 | 0.23 | 0.23 | 100 | 1011.0 |
| 20260507113040 | 10 | 193 | 6.4 | 20.9 | 0.10 | 0.13 | 0.13 | 99 | 1011.2 |
| 20260507111551 | 9 | 197 | 3.2 | 19.3 | 0.05 | 0.05 | 0.05 | 99 | 1011.3 |
| 20260507110038 | 10 | 175 | 9.7 | 22.5 | 0.03 | 0.03 | 0.03 | 99 | 1011.0 |
| 20260507104537 | 10 | 185 | 6.4 | 16.1 | 0.03 | 0.03 | 0.03 | 99 | 1011.4 |
| 20260507103037 | 10 | 222 | 3.2 | 9.7 | 0.03 | 0.03 | 0.03 | 99 | 1011.4 |
| 20260507101537 | 9 | 241 | 4.8 | 6.4 | 0.00 | 0.00 | 0.00 | 99 | 1011.6 |
| 20260507100035 | 8 | 220 | 3.2 | 8.0 | 0.00 | 0.00 | 0.00 | 99 | 1011.5 |
| 20260507094534 | 8 | 199 | 4.8 | 9.7 | 0.00 | 0.00 | 0.00 | 98 | 1012.0 |
| 20260507093041 | 8 | 203 | 1.6 | 6.4 | 0.00 | 0.00 | 0.00 | 98 | 1012.1 |
| 20260507091537 | 10 | 233 | 0.0 | 6.4 | 0.00 | 0.00 | 0.00 | 99 | 1012.3 |
| 20260507090032 | 8 | 231 | 1.6 | 6.4 | 0.00 | 0.00 | 0.00 | 99 | 1012.1 |
| 20260507084532 | 8 | 229 | 0.0 | 4.8 | 0.00 | 0.00 | 0.00 | 98 | 1012.1 |
| 20260507083031 | 8 | 226 | 0.0 | 4.8 | 0.00 | 0.00 | 0.00 | 98 | 1011.9 |
| 20260507081535 | 8 | 227 | 0.0 | 3.2 | 0.00 | 0.00 | 0.00 | 98 | 1012.2 |
| 20260507080028 | 7 | 226 | 1.6 | 3.2 | 0.00 | 0.00 | 0.00 | 97 | 1012.5 |
| 20260507074525 | 7 | 204 | 1.6 | 6.4 | 0.00 | 0.00 | 0.00 | 97 | 1012.9 |
| 20260507073024 | 7 | 214 | 4.8 | 12.9 | 0.00 | 0.00 | 0.00 | 96 | 1013.2 |
| 20260507071527 | 9 | 175 | 8.0 | 14.5 | 0.00 | 0.00 | 0.00 | 96 | 1013.2 |
| 20260507070022 | 8 | 227 | 6.4 | 16.1 | 0.00 | 0.00 | 0.00 | 97 | 1013.5 |
| 20260507064521 | 9 | 185 | 4.8 | 9.7 | 0.00 | 0.00 | 0.00 | 95 | 1013.4 |
| 20260507063019 | 9 | 216 | 4.8 | 14.5 | 0.00 | 0.00 | 0.00 | 94 | 1013.7 |
| 20260507061519 | 11 | 191 | 6.4 | 12.9 | 0.00 | 0.00 | 0.00 | 95 | 1013.7 |
| 20260507060016 | 11 | 202 | 9.7 | 19.3 | 0.00 | 0.00 | 0.00 | 96 | 1014.1 |
| 20260507054513 | 10 | 231 | 9.7 | 22.5 | 0.00 | 0.00 | 0.00 | 96 | 1014.1 |
| 20260507053010 | 10 | 210 | 4.8 | 17.7 | 0.00 | 0.00 | 0.00 | 97 | 1014.3 |
| 20260507051507 | 9 | 221 | 8.0 | 20.9 | 0.00 | 0.00 | 0.00 | 96 | 1014.6 |
| 20260507050008 | 9 | 206 | 8.0 | 22.5 | 0.00 | 0.00 | 0.00 | 96 | 1014.7 |
| 20260507044504 | 9 | 185 | 12.9 | 24.1 | 0.00 | 0.00 | 0.00 | 96 | 1014.9 |